Carrboro, North Carolina
Current Conditions -  °F | °C
As of 10:56 PM on Monday 22 Dec 2014 (Local Time) from KIGX Reporting Station
Haze Haze  
Wind Chill: 37°   Ceiling: 300
Heat Index: 37°   Visibility: 2mi
Dew Point: 35°   Wind: 3mph
Humidity: 93%   Direction: 320°NW
Pressure: 30.07"   Gusts: NA
Location:  35.91°N, 79.08°W
Report Text: KIGX 230356Z AUTO 32003KT 2SM BR OVC003 03/02 A3007 RMK AO2 SLP183 T00280017
Loading
Personal Weather Stations






























Interactive Weather Map New forecast layout! Learn more

10-Day Weather Forecast

Advertisements
Track Severe Weather on mobile